sensor_id;sensor_type;location;lat;lon;timestamp;pressure;altitude;pressure_sealevel;temperature;humidity
59274;BME280;45044;41.572;24.730;2023-03-04T00:00:29;91282.47;;;2.21;100.00
59274;BME280;45044;41.572;24.730;2023-03-04T00:02:56;91276.53;;;2.33;100.00
59274;BME280;45044;41.572;24.730;2023-03-04T00:05:23;91275.34;;;2.31;100.00
59274;BME280;45044;41.572;24.730;2023-03-04T00:07:49;91279.13;;;2.33;100.00
59274;BME280;45044;41.572;24.730;2023-03-04T00:10:16;91281.25;;;2.19;100.00
59274;BME280;45044;41.572;24.730;2023-03-04T00:12:43;91283.59;;;1.99;100.00
59274;BME280;45044;41.572;24.730;2023-03-04T00:15:10;91286.97;;;2.12;100.00
59274;BME280;45044;41.572;24.730;2023-03-04T00:17:36;91282.00;;;2.07;100.00
59274;BME280;45044;41.572;24.730;2023-03-04T00:20:04;91289.53;;;1.99;100.00
59274;BME280;45044;41.572;24.730;2023-03-04T00:22:31;91287.28;;;1.98;100.00
59274;BME280;45044;41.572;24.730;2023-03-04T00:24:57;91296.25;;;2.13;100.00
59274;BME280;45044;41.572;24.730;2023-03-04T00:27:24;91284.19;;;2.30;100.00
59274;BME280;45044;41.572;24.730;2023-03-04T00:29:51;91278.34;;;2.33;100.00
59274;BME280;45044;41.572;24.730;2023-03-04T00:32:17;91283.50;;;2.08;100.00
59274;BME280;45044;41.572;24.730;2023-03-04T00:34:44;91282.88;;;2.11;100.00
59274;BME280;45044;41.572;24.730;2023-03-04T00:37:11;91284.94;;;1.84;100.00
59274;BME280;45044;41.572;24.730;2023-03-04T00:39:38;91282.41;;;1.96;100.00
59274;BME280;45044;41.572;24.730;2023-03-04T00:42:05;91278.44;;;1.77;100.00
59274;BME280;45044;41.572;24.730;2023-03-04T00:44:31;91278.38;;;1.86;100.00
59274;BME280;45044;41.572;24.730;2023-03-04T00:46:58;91257.25;;;1.75;100.00
59274;BME280;45044;41.572;24.730;2023-03-04T00:49:25;91280.00;;;1.91;100.00
59274;BME280;45044;41.572;24.730;2023-03-04T00:51:52;91270.28;;;2.00;100.00
59274;BME280;45044;41.572;24.730;2023-03-04T00:54:18;91273.13;;;2.08;100.00
59274;BME280;45044;41.572;24.730;2023-03-04T00:56:45;91261.28;;;2.19;100.00
59274;BME280;45044;41.572;24.730;2023-03-04T00:59:12;91258.47;;;2.24;100.00
59274;BME280;45044;41.572;24.730;2023-03-04T01:01:38;91250.81;;;2.41;100.00
59274;BME280;45044;41.572;24.730;2023-03-04T01:04:05;91249.31;;;2.52;100.00
59274;BME280;45044;41.572;24.730;2023-03-04T01:06:32;91247.06;;;2.50;100.00
59274;BME280;45044;41.572;24.730;2023-03-04T01:08:59;91250.47;;;2.17;100.00
59274;BME280;45044;41.572;24.730;2023-03-04T01:11:26;91257.88;;;2.06;100.00
59274;BME280;45044;41.572;24.730;2023-03-04T01:13:52;91260.00;;;1.91;100.00
59274;BME280;45044;41.572;24.730;2023-03-04T01:16:19;91247.50;;;1.94;100.00
59274;BME280;45044;41.572;24.730;2023-03-04T01:18:46;91242.22;;;2.02;100.00
59274;BME280;45044;41.572;24.730;2023-03-04T01:21:13;91241.78;;;2.00;100.00
59274;BME280;45044;41.572;24.730;2023-03-04T01:23:40;91238.94;;;1.93;100.00
59274;BME280;45044;41.572;24.730;2023-03-04T01:26:07;91244.81;;;2.02;100.00
59274;BME280;45044;41.572;24.730;2023-03-04T01:28:33;91243.53;;;2.09;100.00
59274;BME280;45044;41.572;24.730;2023-03-04T01:31:02;91247.34;;;1.77;100.00
59274;BME280;45044;41.572;24.730;2023-03-04T01:33:29;91246.25;;;1.78;100.00
59274;BME280;45044;41.572;24.730;2023-03-04T01:35:56;91233.94;;;1.75;100.00
59274;BME280;45044;41.572;24.730;2023-03-04T01:38:23;91247.84;;;2.05;100.00
59274;BME280;45044;41.572;24.730;2023-03-04T01:40:50;91242.00;;;2.08;100.00
59274;BME280;45044;41.572;24.730;2023-03-04T01:43:29;91258.03;;;2.22;100.00
59274;BME280;45044;41.572;24.730;2023-03-04T01:45:57;91242.38;;;2.31;100.00
59274;BME280;45044;41.572;24.730;2023-03-04T01:48:26;91249.84;;;2.45;100.00
59274;BME280;45044;41.572;24.730;2023-03-04T01:50:55;91246.38;;;2.41;100.00
59274;BME280;45044;41.572;24.730;2023-03-04T01:53:24;91245.38;;;2.21;100.00
59274;BME280;45044;41.572;24.730;2023-03-04T01:56:02;91244.34;;;2.34;100.00
59274;BME280;45044;41.572;24.730;2023-03-04T01:58:31;91243.22;;;2.23;100.00
59274;BME280;45044;41.572;24.730;2023-03-04T02:00:58;91241.06;;;2.25;100.00
59274;BME280;45044;41.572;24.730;2023-03-04T02:03:25;91242.47;;;2.22;100.00
59274;BME280;45044;41.572;24.730;2023-03-04T02:05:52;91243.41;;;2.05;100.00
59274;BME280;45044;41.572;24.730;2023-03-04T02:08:22;91234.22;;;2.08;100.00
59274;BME280;45044;41.572;24.730;2023-03-04T02:10:51;91230.00;;;2.03;100.00
59274;BME280;45044;41.572;24.730;2023-03-04T02:13:18;91229.13;;;1.99;100.00
59274;BME280;45044;41.572;24.730;2023-03-04T02:15:45;91221.03;;;2.00;100.00
59274;BME280;45044;41.572;24.730;2023-03-04T02:18:20;91223.38;;;1.93;100.00
59274;BME280;45044;41.572;24.730;2023-03-04T02:23:50;91231.25;;;1.84;100.00
59274;BME280;45044;41.572;24.730;2023-03-04T02:26:22;91223.41;;;1.59;100.00
59274;BME280;45044;41.572;24.730;2023-03-04T02:28:52;91228.31;;;1.39;100.00
59274;BME280;45044;41.572;24.730;2023-03-04T02:33:48;91233.44;;;1.61;100.00
59274;BME280;45044;41.572;24.730;2023-03-04T02:36:15;91233.25;;;1.66;100.00
59274;BME280;45044;41.572;24.730;2023-03-04T02:38:42;91238.22;;;1.71;100.00
59274;BME280;45044;41.572;24.730;2023-03-04T02:41:14;91225.50;;;1.78;100.00
59274;BME280;45044;41.572;24.730;2023-03-04T02:43:45;91230.06;;;1.82;100.00
59274;BME280;45044;41.572;24.730;2023-03-04T02:46:12;91240.47;;;1.94;100.00
59274;BME280;45044;41.572;24.730;2023-03-04T02:48:39;91246.50;;;1.98;100.00
59274;BME280;45044;41.572;24.730;2023-03-04T02:51:05;91243.34;;;1.80;100.00
59274;BME280;45044;41.572;24.730;2023-03-04T02:53:32;91247.56;;;1.85;100.00
59274;BME280;45044;41.572;24.730;2023-03-04T02:55:59;91249.19;;;1.55;100.00
59274;BME280;45044;41.572;24.730;2023-03-04T02:58:26;91254.44;;;1.68;100.00
59274;BME280;45044;41.572;24.730;2023-03-04T03:00:53;91253.28;;;1.78;100.00
59274;BME280;45044;41.572;24.730;2023-03-04T03:03:19;91256.75;;;1.82;100.00
59274;BME280;45044;41.572;24.730;2023-03-04T03:05:46;91256.03;;;1.94;100.00
59274;BME280;45044;41.572;24.730;2023-03-04T03:08:13;91256.41;;;1.84;100.00
59274;BME280;45044;41.572;24.730;2023-03-04T03:10:40;91255.47;;;1.88;100.00
59274;BME280;45044;41.572;24.730;2023-03-04T03:13:07;91264.31;;;1.53;100.00
59274;BME280;45044;41.572;24.730;2023-03-04T03:15:33;91248.44;;;1.34;100.00
59274;BME280;45044;41.572;24.730;2023-03-04T03:18:01;91256.53;;;1.53;100.00
59274;BME280;45044;41.572;24.730;2023-03-04T03:20:27;91262.59;;;1.58;100.00
59274;BME280;45044;41.572;24.730;2023-03-04T03:22:54;91255.03;;;1.52;100.00
59274;BME280;45044;41.572;24.730;2023-03-04T03:25:21;91249.34;;;1.38;100.00
59274;BME280;45044;41.572;24.730;2023-03-04T03:27:47;91264.38;;;1.45;100.00
59274;BME280;45044;41.572;24.730;2023-03-04T03:30:15;91260.56;;;1.42;100.00
59274;BME280;45044;41.572;24.730;2023-03-04T03:32:42;91260.00;;;1.58;100.00
59274;BME280;45044;41.572;24.730;2023-03-04T03:35:09;91268.78;;;1.44;100.00
59274;BME280;45044;41.572;24.730;2023-03-04T03:37:36;91266.38;;;1.60;100.00
59274;BME280;45044;41.572;24.730;2023-03-04T03:40:03;91260.28;;;1.77;100.00
59274;BME280;45044;41.572;24.730;2023-03-04T03:42:30;91256.91;;;1.64;100.00
59274;BME280;45044;41.572;24.730;2023-03-04T03:44:57;91261.97;;;1.39;100.00
59274;BME280;45044;41.572;24.730;2023-03-04T03:47:24;91257.53;;;1.61;100.00
59274;BME280;45044;41.572;24.730;2023-03-04T03:49:50;91260.69;;;1.24;100.00
59274;BME280;45044;41.572;24.730;2023-03-04T03:52:17;91262.28;;;1.16;100.00
59274;BME280;45044;41.572;24.730;2023-03-04T03:54:44;91260.31;;;1.35;100.00
59274;BME280;45044;41.572;24.730;2023-03-04T03:57:10;91256.88;;;1.30;100.00
59274;BME280;45044;41.572;24.730;2023-03-04T03:59:37;91265.25;;;1.49;100.00
59274;BME280;45044;41.572;24.730;2023-03-04T04:02:04;91266.06;;;1.62;100.00
59274;BME280;45044;41.572;24.730;2023-03-04T04:04:31;91265.00;;;1.41;100.00
59274;BME280;45044;41.572;24.730;2023-03-04T04:06:57;91264.31;;;1.53;100.00
59274;BME280;45044;41.572;24.730;2023-03-04T04:09:24;91262.34;;;1.50;100.00
59274;BME280;45044;41.572;24.730;2023-03-04T04:11:51;91269.56;;;1.45;100.00
59274;BME280;45044;41.572;24.730;2023-03-04T04:14:18;91261.59;;;1.28;100.00
59274;BME280;45044;41.572;24.730;2023-03-04T04:16:44;91271.56;;;1.39;100.00
59274;BME280;45044;41.572;24.730;2023-03-04T04:19:16;91262.97;;;1.69;100.00
59274;BME280;45044;41.572;24.730;2023-03-04T04:21:43;91270.22;;;1.75;100.00
59274;BME280;45044;41.572;24.730;2023-03-04T04:24:10;91266.91;;;1.53;100.00
59274;BME280;45044;41.572;24.730;2023-03-04T04:26:37;91270.31;;;1.45;100.00
59274;BME280;45044;41.572;24.730;2023-03-04T04:29:04;91271.19;;;1.49;100.00
59274;BME280;45044;41.572;24.730;2023-03-04T04:31:32;91273.28;;;1.35;100.00
59274;BME280;45044;41.572;24.730;2023-03-04T04:33:59;91273.09;;;1.40;100.00
59274;BME280;45044;41.572;24.730;2023-03-04T04:36:26;91265.31;;;1.18;100.00
59274;BME280;45044;41.572;24.730;2023-03-04T04:38:53;91261.25;;;1.51;100.00
59274;BME280;45044;41.572;24.730;2023-03-04T04:41:22;91265.75;;;1.42;100.00
59274;BME280;45044;41.572;24.730;2023-03-04T04:43:50;91256.09;;;1.09;100.00
59274;BME280;45044;41.572;24.730;2023-03-04T04:46:18;91257.09;;;0.95;100.00
59274;BME280;45044;41.572;24.730;2023-03-04T04:48:45;91253.63;;;0.91;100.00
59274;BME280;45044;41.572;24.730;2023-03-04T04:51:12;91270.03;;;0.95;100.00
59274;BME280;45044;41.572;24.730;2023-03-04T04:53:39;91276.69;;;1.05;100.00
59274;BME280;45044;41.572;24.730;2023-03-04T04:56:15;91264.84;;;0.95;100.00
59274;BME280;45044;41.572;24.730;2023-03-04T04:58:43;91262.34;;;1.07;100.00
59274;BME280;45044;41.572;24.730;2023-03-04T05:01:10;91257.22;;;0.99;100.00
59274;BME280;45044;41.572;24.730;2023-03-04T05:03:38;91267.91;;;1.18;100.00
59274;BME280;45044;41.572;24.730;2023-03-04T05:06:07;91260.50;;;1.08;100.00
59274;BME280;45044;41.572;24.730;2023-03-04T05:08:35;91259.56;;;1.13;100.00
59274;BME280;45044;41.572;24.730;2023-03-04T05:11:05;91249.53;;;1.33;100.00
59274;BME280;45044;41.572;24.730;2023-03-04T05:13:32;91252.00;;;1.29;100.00
59274;BME280;45044;41.572;24.730;2023-03-04T05:15:59;91258.13;;;1.24;100.00
59274;BME280;45044;41.572;24.730;2023-03-04T05:18:26;91245.91;;;1.46;100.00
59274;BME280;45044;41.572;24.730;2023-03-04T05:20:56;91253.34;;;1.69;100.00
59274;BME280;45044;41.572;24.730;2023-03-04T05:23:26;91251.72;;;1.64;100.00
59274;BME280;45044;41.572;24.730;2023-03-04T05:25:53;91264.88;;;1.38;100.00
59274;BME280;45044;41.572;24.730;2023-03-04T05:28:20;91265.06;;;1.54;100.00
59274;BME280;45044;41.572;24.730;2023-03-04T05:30:46;91265.94;;;1.79;100.00
59274;BME280;45044;41.572;24.730;2023-03-04T05:33:15;91267.03;;;1.91;100.00
59274;BME280;45044;41.572;24.730;2023-03-04T05:35:43;91266.00;;;2.05;100.00
59274;BME280;45044;41.572;24.730;2023-03-04T05:38:12;91266.66;;;2.14;100.00
59274;BME280;45044;41.572;24.730;2023-03-04T05:40:40;91270.09;;;2.06;100.00
59274;BME280;45044;41.572;24.730;2023-03-04T05:43:07;91267.53;;;2.18;100.00
59274;BME280;45044;41.572;24.730;2023-03-04T05:45:34;91273.16;;;2.20;100.00
59274;BME280;45044;41.572;24.730;2023-03-04T05:48:01;91268.16;;;2.15;100.00
59274;BME280;45044;41.572;24.730;2023-03-04T05:50:28;91267.88;;;1.83;100.00
59274;BME280;45044;41.572;24.730;2023-03-04T05:52:55;91268.41;;;1.76;100.00
59274;BME280;45044;41.572;24.730;2023-03-04T05:55:22;91267.94;;;1.74;100.00
59274;BME280;45044;41.572;24.730;2023-03-04T05:57:49;91265.88;;;1.67;100.00
59274;BME280;45044;41.572;24.730;2023-03-04T06:00:16;91269.53;;;1.66;100.00
59274;BME280;45044;41.572;24.730;2023-03-04T06:02:44;91277.50;;;1.61;100.00
59274;BME280;45044;41.572;24.730;2023-03-04T06:05:12;91275.34;;;1.63;100.00
59274;BME280;45044;41.572;24.730;2023-03-04T06:07:40;91276.50;;;1.53;100.00
59274;BME280;45044;41.572;24.730;2023-03-04T06:10:10;91267.53;;;1.50;100.00
59274;BME280;45044;41.572;24.730;2023-03-04T06:12:37;91274.47;;;1.37;100.00
59274;BME280;45044;41.572;24.730;2023-03-04T06:15:04;91279.22;;;1.57;100.00
59274;BME280;45044;41.572;24.730;2023-03-04T06:17:32;91276.88;;;1.64;100.00
59274;BME280;45044;41.572;24.730;2023-03-04T06:19:59;91271.38;;;1.99;100.00
59274;BME280;45044;41.572;24.730;2023-03-04T06:22:26;91273.03;;;2.17;100.00
59274;BME280;45044;41.572;24.730;2023-03-04T06:24:52;91272.81;;;2.22;100.00
59274;BME280;45044;41.572;24.730;2023-03-04T06:27:19;91256.53;;;2.21;100.00
59274;BME280;45044;41.572;24.730;2023-03-04T06:29:46;91264.34;;;2.46;100.00
59274;BME280;45044;41.572;24.730;2023-03-04T06:32:13;91264.13;;;2.51;100.00
59274;BME280;45044;41.572;24.730;2023-03-04T06:34:39;91269.28;;;2.26;100.00
59274;BME280;45044;41.572;24.730;2023-03-04T06:37:06;91269.31;;;2.39;100.00
59274;BME280;45044;41.572;24.730;2023-03-04T06:39:33;91264.44;;;2.62;100.00
59274;BME280;45044;41.572;24.730;2023-03-04T06:42:00;91258.59;;;2.78;100.00
59274;BME280;45044;41.572;24.730;2023-03-04T06:44:26;91267.16;;;2.66;100.00
59274;BME280;45044;41.572;24.730;2023-03-04T06:46:53;91272.78;;;2.43;100.00
59274;BME280;45044;41.572;24.730;2023-03-04T06:49:20;91269.28;;;2.26;100.00
59274;BME280;45044;41.572;24.730;2023-03-04T06:51:47;91265.81;;;2.35;100.00
59274;BME280;45044;41.572;24.730;2023-03-04T06:54:13;91270.19;;;2.93;100.00
59274;BME280;45044;41.572;24.730;2023-03-04T06:56:40;91271.69;;;3.07;100.00
59274;BME280;45044;41.572;24.730;2023-03-04T06:59:07;91270.22;;;4.04;100.00
59274;BME280;45044;41.572;24.730;2023-03-04T07:01:34;91264.50;;;5.68;100.00
59274;BME280;45044;41.572;24.730;2023-03-04T07:04:01;91272.63;;;7.77;100.00
59274;BME280;45044;41.572;24.730;2023-03-04T07:06:28;91269.84;;;10.04;100.00
59274;BME280;45044;41.572;24.730;2023-03-04T07:08:55;91266.09;;;11.92;100.00
59274;BME280;45044;41.572;24.730;2023-03-04T07:11:23;91267.25;;;13.19;87.49
59274;BME280;45044;41.572;24.730;2023-03-04T07:13:50;91280.75;;;13.28;83.15
59274;BME280;45044;41.572;24.730;2023-03-04T07:16:21;91281.19;;;12.66;94.69
59274;BME280;45044;41.572;24.730;2023-03-04T07:18:48;91282.56;;;12.86;83.64
59274;BME280;45044;41.572;24.730;2023-03-04T07:21:15;91282.28;;;11.86;94.40
59274;BME280;45044;41.572;24.730;2023-03-04T07:23:42;91275.63;;;11.34;100.00
59274;BME280;45044;41.572;24.730;2023-03-04T07:26:10;91291.13;;;9.14;100.00
59274;BME280;45044;41.572;24.730;2023-03-04T07:28:37;91274.84;;;7.75;100.00
59274;BME280;45044;41.572;24.730;2023-03-04T07:31:12;91273.78;;;8.18;100.00
59274;BME280;45044;41.572;24.730;2023-03-04T07:33:41;91246.34;;;6.81;100.00
59274;BME280;45044;41.572;24.730;2023-03-04T07:36:08;91275.28;;;7.50;100.00
59274;BME280;45044;41.572;24.730;2023-03-04T07:38:35;91266.53;;;6.85;100.00
59274;BME280;45044;41.572;24.730;2023-03-04T07:41:02;91266.22;;;6.90;100.00
59274;BME280;45044;41.572;24.730;2023-03-04T07:43:33;91271.13;;;7.18;100.00
59274;BME280;45044;41.572;24.730;2023-03-04T07:46:00;91270.13;;;6.76;100.00
59274;BME280;45044;41.572;24.730;2023-03-04T07:48:28;91266.31;;;6.70;100.00
59274;BME280;45044;41.572;24.730;2023-03-04T07:51:06;91272.00;;;6.52;100.00
59274;BME280;45044;41.572;24.730;2023-03-04T07:53:33;91264.94;;;5.90;100.00
59274;BME280;45044;41.572;24.730;2023-03-04T07:56:01;91275.84;;;5.75;100.00
59274;BME280;45044;41.572;24.730;2023-03-04T07:58:28;91274.66;;;5.73;100.00
59274;BME280;45044;41.572;24.730;2023-03-04T08:00:55;91276.63;;;5.76;100.00
59274;BME280;45044;41.572;24.730;2023-03-04T08:03:24;91276.63;;;5.76;100.00
59274;BME280;45044;41.572;24.730;2023-03-04T08:05:50;91273.22;;;5.56;100.00
59274;BME280;45044;41.572;24.730;2023-03-04T08:08:17;91272.94;;;5.41;100.00
59274;BME280;45044;41.572;24.730;2023-03-04T08:10:44;91271.41;;;5.40;100.00
59274;BME280;45044;41.572;24.730;2023-03-04T08:13:11;91270.88;;;5.14;100.00
59274;BME280;45044;41.572;24.730;2023-03-04T08:15:41;91279.31;;;5.08;100.00
59274;BME280;45044;41.572;24.730;2023-03-04T08:18:08;91280.50;;;5.10;100.00
59274;BME280;45044;41.572;24.730;2023-03-04T08:20:35;91273.78;;;5.29;100.00
59274;BME280;45044;41.572;24.730;2023-03-04T08:23:02;91260.09;;;5.32;100.00
59274;BME280;45044;41.572;24.730;2023-03-04T08:25:28;91265.97;;;5.65;100.00
59274;BME280;45044;41.572;24.730;2023-03-04T08:27:55;91271.91;;;5.66;100.00
59274;BME280;45044;41.572;24.730;2023-03-04T08:30:22;91267.53;;;5.90;100.00
59274;BME280;45044;41.572;24.730;2023-03-04T08:32:49;91260.25;;;6.19;100.00
59274;BME280;45044;41.572;24.730;2023-03-04T08:35:16;91258.13;;;6.25;100.00
59274;BME280;45044;41.572;24.730;2023-03-04T08:37:42;91257.66;;;6.42;100.00
59274;BME280;45044;41.572;24.730;2023-03-04T08:40:11;91254.75;;;6.47;100.00
59274;BME280;45044;41.572;24.730;2023-03-04T08:42:38;91252.00;;;6.17;100.00
59274;BME280;45044;41.572;24.730;2023-03-04T08:45:05;91250.09;;;5.94;100.00
59274;BME280;45044;41.572;24.730;2023-03-04T08:47:31;91259.72;;;5.70;100.00
59274;BME280;45044;41.572;24.730;2023-03-04T08:49:58;91249.53;;;5.45;100.00
59274;BME280;45044;41.572;24.730;2023-03-04T08:52:28;91265.59;;;5.27;100.00
59274;BME280;45044;41.572;24.730;2023-03-04T08:54:55;91255.28;;;4.98;100.00
59274;BME280;45044;41.572;24.730;2023-03-04T08:57:22;91249.84;;;4.87;100.00
59274;BME280;45044;41.572;24.730;2023-03-04T08:59:50;91241.91;;;5.00;100.00
59274;BME280;45044;41.572;24.730;2023-03-04T09:02:17;91246.66;;;5.30;100.00
59274;BME280;45044;41.572;24.730;2023-03-04T09:04:43;91248.16;;;5.31;100.00
59274;BME280;45044;41.572;24.730;2023-03-04T09:07:10;91242.72;;;5.20;100.00
59274;BME280;45044;41.572;24.730;2023-03-04T09:09:37;91245.41;;;5.44;100.00
59274;BME280;45044;41.572;24.730;2023-03-04T09:12:04;91238.06;;;5.30;100.00
59274;BME280;45044;41.572;24.730;2023-03-04T09:14:32;91233.84;;;5.41;100.00
59274;BME280;45044;41.572;24.730;2023-03-04T09:17:05;91208.44;;;5.38;100.00
59274;BME280;45044;41.572;24.730;2023-03-04T09:19:32;91236.94;;;5.67;100.00
59274;BME280;45044;41.572;24.730;2023-03-04T09:21:59;91236.50;;;5.84;100.00
59274;BME280;45044;41.572;24.730;2023-03-04T09:24:26;91235.81;;;5.87;100.00
59274;BME280;45044;41.572;24.730;2023-03-04T09:26:53;91235.25;;;5.98;100.00
59274;BME280;45044;41.572;24.730;2023-03-04T09:29:23;91232.78;;;5.46;100.00
59274;BME280;45044;41.572;24.730;2023-03-04T09:31:50;91230.19;;;5.66;100.00
59274;BME280;45044;41.572;24.730;2023-03-04T09:34:17;91233.75;;;5.97;100.00
59274;BME280;45044;41.572;24.730;2023-03-04T09:36:43;91226.91;;;6.08;100.00
59274;BME280;45044;41.572;24.730;2023-03-04T09:39:10;91227.63;;;5.89;100.00
59274;BME280;45044;41.572;24.730;2023-03-04T09:41:43;91227.84;;;5.80;100.00
59274;BME280;45044;41.572;24.730;2023-03-04T09:46:46;91225.94;;;5.77;100.00
59274;BME280;45044;41.572;24.730;2023-03-04T09:49:15;91228.81;;;6.11;100.00
59274;BME280;45044;41.572;24.730;2023-03-04T09:57:14;91220.09;;;5.84;100.00
59274;BME280;45044;41.572;24.730;2023-03-04T10:05:38;91203.00;;;5.86;100.00
59274;BME280;45044;41.572;24.730;2023-03-04T10:11:03;91193.88;;;6.20;100.00
59274;BME280;45044;41.572;24.730;2023-03-04T10:13:45;91193.53;;;6.45;100.00
59274;BME280;45044;41.572;24.730;2023-03-04T10:16:17;91201.50;;;6.29;100.00
59274;BME280;45044;41.572;24.730;2023-03-04T10:18:50;91198.25;;;5.92;100.00
59274;BME280;45044;41.572;24.730;2023-03-04T10:21:43;91197.47;;;6.11;100.00
59274;BME280;45044;41.572;24.730;2023-03-04T10:24:11;91197.47;;;6.11;100.00
59274;BME280;45044;41.572;24.730;2023-03-04T10:26:41;91196.09;;;6.18;100.00
59274;BME280;45044;41.572;24.730;2023-03-04T10:29:15;91182.13;;;6.06;100.00
59274;BME280;45044;41.572;24.730;2023-03-04T10:31:43;91180.44;;;6.18;100.00
59274;BME280;45044;41.572;24.730;2023-03-04T10:34:11;91166.50;;;6.33;100.00
59274;BME280;45044;41.572;24.730;2023-03-04T10:36:55;91172.97;;;6.43;100.00
59274;BME280;45044;41.572;24.730;2023-03-04T10:39:27;91171.34;;;6.58;100.00
59274;BME280;45044;41.572;24.730;2023-03-04T10:41:58;91172.16;;;6.90;100.00
59274;BME280;45044;41.572;24.730;2023-03-04T10:44:26;91165.81;;;6.91;100.00
59274;BME280;45044;41.572;24.730;2023-03-04T10:46:55;91157.94;;;7.18;100.00
59274;BME280;45044;41.572;24.730;2023-03-04T10:49:24;91161.31;;;7.18;100.00
59274;BME280;45044;41.572;24.730;2023-03-04T10:51:54;91148.00;;;7.00;100.00
59274;BME280;45044;41.572;24.730;2023-03-04T10:54:28;91146.38;;;6.88;100.00
59274;BME280;45044;41.572;24.730;2023-03-04T10:57:12;91146.28;;;7.42;100.00
59274;BME280;45044;41.572;24.730;2023-03-04T11:02:23;91144.34;;;7.36;100.00
59274;BME280;45044;41.572;24.730;2023-03-04T11:04:53;91136.81;;;7.30;100.00
59274;BME280;45044;41.572;24.730;2023-03-04T11:07:23;91141.56;;;7.21;100.00
59274;BME280;45044;41.572;24.730;2023-03-04T11:09:51;91129.09;;;7.11;100.00
59274;BME280;45044;41.572;24.730;2023-03-04T11:12:31;91132.59;;;7.22;100.00
59274;BME280;45044;41.572;24.730;2023-03-04T11:15:00;91124.44;;;7.27;100.00
59274;BME280;45044;41.572;24.730;2023-03-04T11:17:46;91133.84;;;7.01;100.00
59274;BME280;45044;41.572;24.730;2023-03-04T11:20:34;91121.84;;;6.97;100.00
59274;BME280;45044;41.572;24.730;2023-03-04T11:23:09;91116.81;;;7.15;100.00
59274;BME280;45044;41.572;24.730;2023-03-04T11:25:41;91105.47;;;7.03;100.00
59274;BME280;45044;41.572;24.730;2023-03-04T11:28:19;91117.28;;;6.90;100.00
59274;BME280;45044;41.572;24.730;2023-03-04T11:30:56;91111.09;;;6.75;100.00
59274;BME280;45044;41.572;24.730;2023-03-04T11:33:32;91106.44;;;6.61;100.00
59274;BME280;45044;41.572;24.730;2023-03-04T11:38:56;91096.00;;;6.61;100.00
59274;BME280;45044;41.572;24.730;2023-03-04T11:41:35;91098.94;;;6.28;100.00
59274;BME280;45044;41.572;24.730;2023-03-04T11:44:06;91088.31;;;5.94;100.00
59274;BME280;45044;41.572;24.730;2023-03-04T11:55:39;91087.31;;;6.26;100.00
59274;BME280;45044;41.572;24.730;2023-03-04T12:01:03;91072.50;;;6.33;100.00
59274;BME280;45044;41.572;24.730;2023-03-04T12:09:02;91072.69;;;6.75;100.00
59274;BME280;45044;41.572;24.730;2023-03-04T12:17:43;91074.63;;;7.54;100.00
59274;BME280;45044;41.572;24.730;2023-03-04T12:25:43;91058.09;;;7.43;100.00
59274;BME280;45044;41.572;24.730;2023-03-04T12:31:40;91070.00;;;7.37;100.00
59274;BME280;45044;41.572;24.730;2023-03-04T12:34:29;91071.97;;;7.13;100.00
59274;BME280;45044;41.572;24.730;2023-03-04T12:37:11;91065.84;;;7.32;100.00
59274;BME280;45044;41.572;24.730;2023-03-04T12:45:23;91057.72;;;7.41;100.00
59274;BME280;45044;41.572;24.730;2023-03-04T12:48:07;91053.53;;;7.36;100.00
59274;BME280;45044;41.572;24.730;2023-03-04T12:50:58;91051.75;;;7.44;100.00
59274;BME280;45044;41.572;24.730;2023-03-04T12:56:05;91009.59;;;7.53;100.00
59274;BME280;45044;41.572;24.730;2023-03-04T12:58:35;91030.41;;;7.84;100.00
59274;BME280;45044;41.572;24.730;2023-03-04T13:01:10;91032.44;;;8.05;100.00
59274;BME280;45044;41.572;24.730;2023-03-04T13:12:10;91033.31;;;7.29;100.00
59274;BME280;45044;41.572;24.730;2023-03-04T13:14:39;91033.50;;;7.51;100.00
59274;BME280;45044;41.572;24.730;2023-03-04T13:17:41;91033.06;;;7.42;100.00
59274;BME280;45044;41.572;24.730;2023-03-04T13:20:32;91035.03;;;7.14;100.00
59274;BME280;45044;41.572;24.730;2023-03-04T13:25:45;91003.38;;;7.23;100.00
59274;BME280;45044;41.572;24.730;2023-03-04T13:36:01;91007.47;;;7.66;100.00
59274;BME280;45044;41.572;24.730;2023-03-04T13:54:30;90986.53;;;7.62;100.00
59274;BME280;45044;41.572;24.730;2023-03-04T13:59:48;90990.59;;;8.91;100.00
59274;BME280;45044;41.572;24.730;2023-03-04T14:02:18;90986.44;;;8.79;100.00
59274;BME280;45044;41.572;24.730;2023-03-04T14:07:34;90982.81;;;7.67;100.00
59274;BME280;45044;41.572;24.730;2023-03-04T14:10:21;90981.38;;;7.28;100.00
59274;BME280;45044;41.572;24.730;2023-03-04T14:12:52;90972.84;;;7.35;100.00
59274;BME280;45044;41.572;24.730;2023-03-04T14:15:28;90977.09;;;7.09;100.00
59274;BME280;45044;41.572;24.730;2023-03-04T14:17:57;90982.34;;;7.09;100.00
59274;BME280;45044;41.572;24.730;2023-03-04T14:20:38;90979.94;;;6.96;100.00
59274;BME280;45044;41.572;24.730;2023-03-04T14:23:28;90975.97;;;6.71;100.00
59274;BME280;45044;41.572;24.730;2023-03-04T14:26:12;90976.16;;;6.55;100.00
59274;BME280;45044;41.572;24.730;2023-03-04T14:28:47;90960.34;;;6.41;100.00
59274;BME280;45044;41.572;24.730;2023-03-04T14:31:19;90964.13;;;6.47;100.00
59274;BME280;45044;41.572;24.730;2023-03-04T14:33:49;90966.59;;;6.32;100.00
59274;BME280;45044;41.572;24.730;2023-03-04T14:36:21;90957.47;;;6.19;100.00
59274;BME280;45044;41.572;24.730;2023-03-04T14:38:55;90940.16;;;6.07;100.00
59274;BME280;45044;41.572;24.730;2023-03-04T14:41:37;90962.59;;;6.42;100.00
59274;BME280;45044;41.572;24.730;2023-03-04T14:46:42;90949.22;;;6.47;100.00
59274;BME280;45044;41.572;24.730;2023-03-04T14:49:33;90937.03;;;6.59;100.00
59274;BME280;45044;41.572;24.730;2023-03-04T14:52:02;90931.56;;;6.71;100.00